createdAt,value
2022-08-26T00:00:30.525Z,64.04
2022-08-26T00:01:36.777Z,64.29
2022-08-26T00:02:42.500Z,64.37
2022-08-26T00:03:47.013Z,64.2
2022-08-26T00:04:51.809Z,64.08
2022-08-26T00:05:56.259Z,64.28
2022-08-26T00:07:00.662Z,64.18
2022-08-26T00:08:05.043Z,64.06
2022-08-26T00:09:10.614Z,64.14
2022-08-26T00:10:16.539Z,64.01
2022-08-26T00:11:29.686Z,64.36
2022-08-26T00:12:40.430Z,64.43
2022-08-26T00:13:51.483Z,64.42
2022-08-26T00:14:57.691Z,64.58
2022-08-26T00:16:03.371Z,64.26
2022-08-26T00:17:10.778Z,64.52
2022-08-26T00:18:24.040Z,64.27
2022-08-26T00:19:30.377Z,64.3
2022-08-26T00:20:36.400Z,64.4
2022-08-26T00:21:40.851Z,64.53
2022-08-26T00:22:45.738Z,64.69
2022-08-26T00:23:50.167Z,64.56
2022-08-26T00:24:54.568Z,64.81
2022-08-26T00:25:59.740Z,64.77
2022-08-26T00:27:08.534Z,64.65
2022-08-26T00:28:20.016Z,64.57
2022-08-26T00:29:25.951Z,64.66
2022-08-26T00:30:31.812Z,64.36
2022-08-26T00:31:38.351Z,64.79
2022-08-26T00:32:49.265Z,64.72
2022-08-26T00:33:57.022Z,64.79
2022-08-26T00:35:02.898Z,64.69
2022-08-26T00:36:07.533Z,64.76
2022-08-26T00:37:17.754Z,64.69
2022-08-26T00:38:23.879Z,64.64
2022-08-26T00:39:29.070Z,64.72
2022-08-26T00:40:33.766Z,64.77
2022-08-26T00:41:38.423Z,64.5
2022-08-26T00:42:49.544Z,64.59
2022-08-26T00:43:55.146Z,64.72
2022-08-26T00:44:59.813Z,64.72
2022-08-26T00:46:04.703Z,64.62
2022-08-26T00:47:10.326Z,64.81
2022-08-26T00:48:15.416Z,64.89
2022-08-26T00:49:20.201Z,64.66
2022-08-26T00:50:26.276Z,64.76
2022-08-26T00:51:32.069Z,64.91
2022-08-26T00:52:39.383Z,64.03
2022-08-26T00:53:49.914Z,64.76
2022-08-26T00:54:55.255Z,64.84
2022-08-26T00:55:59.701Z,64.6
2022-08-26T00:57:04.962Z,64.32
2022-08-26T00:58:13.150Z,64.86
2022-08-26T00:59:19.713Z,64.77
2022-08-26T01:00:24.353Z,64.79
2022-08-26T01:01:31.742Z,64.68
2022-08-26T01:02:46.754Z,64.62
2022-08-26T01:03:53.067Z,64.47
2022-08-26T01:05:00.656Z,64.62
2022-08-26T01:06:13.543Z,64.6
2022-08-26T01:07:18.214Z,64.63
2022-08-26T01:08:28.861Z,64.45
2022-08-26T01:09:33.291Z,64.71
2022-08-26T01:10:38.338Z,64.43
2022-08-26T01:11:44.406Z,64.53
2022-08-26T01:12:51.336Z,64.53
2022-08-26T01:13:56.196Z,64.59
2022-08-26T01:15:00.562Z,64.37
2022-08-26T01:16:05.081Z,64.81
2022-08-26T01:17:10.363Z,64.21
2022-08-26T01:18:14.767Z,64.57
2022-08-26T01:19:19.170Z,64.61
2022-08-26T01:20:23.924Z,64.75
2022-08-26T01:21:28.321Z,64.61
2022-08-26T01:22:33.861Z,64.45
2022-08-26T01:23:39.260Z,64.65
2022-08-26T01:24:43.797Z,64.63
2022-08-26T01:25:48.225Z,64.39
2022-08-26T01:26:53.694Z,64.42
2022-08-26T01:27:59.568Z,64.67
2022-08-26T01:29:03.983Z,64.8
2022-08-26T01:30:09.251Z,64.28
2022-08-26T01:31:18.571Z,64.32
2022-08-26T01:32:25.434Z,64.46
2022-08-26T01:33:30.402Z,64.41
2022-08-26T01:34:44.412Z,64.76
2022-08-26T01:35:52.591Z,64.76
2022-08-26T01:36:57.370Z,64.97
2022-08-26T01:38:03.221Z,64.84
2022-08-26T01:39:09.364Z,64.87
2022-08-26T01:40:17.895Z,64.97
2022-08-26T01:41:30.257Z,65.01
2022-08-26T01:42:34.991Z,64.88
2022-08-26T01:43:39.369Z,64.75
2022-08-26T01:44:44.610Z,64.79
2022-08-26T01:45:50.097Z,64.99
2022-08-26T01:46:54.738Z,64.93
2022-08-26T01:48:01.115Z,64.98
2022-08-26T01:49:08.812Z,64.76
2022-08-26T01:50:18.081Z,64.58
2022-08-26T01:51:32.388Z,64.86
2022-08-26T01:52:36.810Z,65.04
2022-08-26T01:53:47.859Z,64.68
2022-08-26T01:54:53.151Z,64.24
2022-08-26T01:55:58.049Z,64.91
2022-08-26T01:57:03.970Z,65.02
2022-08-26T01:58:08.387Z,64.65
2022-08-26T01:59:14.685Z,64.85
2022-08-26T02:00:19.414Z,64.79
2022-08-26T02:01:29.877Z,64.88
2022-08-26T02:02:35.205Z,64.79
2022-08-26T02:03:44.365Z,64.74
2022-08-26T02:04:52.054Z,64.71
2022-08-26T02:05:56.945Z,64.29
2022-08-26T02:07:01.506Z,64.65
2022-08-26T02:08:06.061Z,64.8
2022-08-26T02:09:10.445Z,64.69
2022-08-26T02:10:15.787Z,64.68
2022-08-26T02:11:21.403Z,64.68
2022-08-26T02:12:28.057Z,64.66
2022-08-26T02:13:32.481Z,64.5
2022-08-26T02:14:44.810Z,64.6
2022-08-26T02:15:49.369Z,64.68
2022-08-26T02:16:54.914Z,64.58
2022-08-26T02:18:00.031Z,64.53
2022-08-26T02:19:08.109Z,64.77
2022-08-26T02:20:21.458Z,64.63
2022-08-26T02:21:27.098Z,64.47
2022-08-26T02:22:31.563Z,64.58
2022-08-26T02:23:36.321Z,64.75
2022-08-26T02:24:44.524Z,64.61
2022-08-26T02:25:48.965Z,64.53
2022-08-26T02:26:53.366Z,64.6
2022-08-26T02:27:58.102Z,64.63
2022-08-26T02:29:02.970Z,64.43
2022-08-26T02:30:07.372Z,64.38
2022-08-26T02:31:12.256Z,64.29
2022-08-26T02:32:20.668Z,64.25
2022-08-26T02:33:25.475Z,64.13
2022-08-26T02:34:33.133Z,64.33
2022-08-26T02:35:37.598Z,64.52
2022-08-26T02:36:42.234Z,64.39
2022-08-26T02:37:46.791Z,64.49
2022-08-26T02:38:54.168Z,64.38
2022-08-26T02:40:00.373Z,64.21
2022-08-26T02:41:04.835Z,64.44
2022-08-26T02:42:12.322Z,64.36
2022-08-26T02:43:16.823Z,64.38
2022-08-26T02:44:22.104Z,64.38
2022-08-26T02:45:26.560Z,64.15
2022-08-26T02:46:33.300Z,64.12
2022-08-26T02:47:38.903Z,64.16
2022-08-26T02:48:43.513Z,63.98
2022-08-26T02:49:49.499Z,64.21
2022-08-26T02:50:54.208Z,64.12
2022-08-26T02:52:02.852Z,64.2
2022-08-26T02:53:08.561Z,63.95
2022-08-26T02:54:13.069Z,63.93
2022-08-26T02:55:17.755Z,64.21
2022-08-26T02:56:22.172Z,63.89
2022-08-26T02:57:27.224Z,64.14
2022-08-26T02:58:31.659Z,64.19
2022-08-26T02:59:36.734Z,63.87
2022-08-26T03:00:55.797Z,64.1
2022-08-26T03:02:00.602Z,63.96
2022-08-26T03:03:05.463Z,63.95
2022-08-26T03:04:11.214Z,64.22
2022-08-26T03:05:18.001Z,64.07
2022-08-26T03:06:22.387Z,63.94
2022-08-26T03:07:26.769Z,64.06
2022-08-26T03:08:31.380Z,63.95
2022-08-26T03:09:35.829Z,64.19
2022-08-26T03:10:40.925Z,63.9
2022-08-26T03:11:45.741Z,63.97
2022-08-26T03:12:53.159Z,63.83
2022-08-26T03:13:57.805Z,64.03
2022-08-26T03:15:02.431Z,64.13
2022-08-26T03:16:21.393Z,64
2022-08-26T03:17:29.025Z,63.94
2022-08-26T03:18:34.663Z,64.13
2022-08-26T03:19:39.358Z,64.05
2022-08-26T03:20:46.566Z,63.99
2022-08-26T03:21:53.331Z,64.11
2022-08-26T03:23:02.947Z,64.12
2022-08-26T03:24:08.815Z,64
2022-08-26T03:25:13.259Z,63.98
2022-08-26T03:26:19.113Z,64
2022-08-26T03:27:23.519Z,64
2022-08-26T03:28:29.377Z,64.07
2022-08-26T03:29:35.073Z,63.96
2022-08-26T03:30:45.972Z,63.98
2022-08-26T03:31:51.698Z,63.9
2022-08-26T03:32:56.955Z,64.07
2022-08-26T03:34:01.801Z,63.87
2022-08-26T03:35:06.239Z,64.05
2022-08-26T03:36:11.807Z,63.88
2022-08-26T03:37:16.266Z,63.87
2022-08-26T03:38:21.509Z,63.86
2022-08-26T03:39:26.496Z,64.06
2022-08-26T03:40:31.727Z,63.92
2022-08-26T03:41:36.505Z,63.88
2022-08-26T03:42:40.879Z,63.27
2022-08-26T03:43:49.921Z,63.55
2022-08-26T03:44:54.554Z,63.93
2022-08-26T03:45:59.295Z,63.76
2022-08-26T03:47:06.945Z,63.6
2022-08-26T03:48:11.308Z,63.84
2022-08-26T03:49:17.320Z,63.72
2022-08-26T03:50:27.798Z,63.77
2022-08-26T03:51:35.219Z,63.89
2022-08-26T03:52:46.032Z,63.46
2022-08-26T03:53:50.420Z,63.84
2022-08-26T03:54:54.910Z,63.95
2022-08-26T03:55:59.528Z,63.6
2022-08-26T03:57:04.176Z,63.57
2022-08-26T03:58:09.482Z,63.4
2022-08-26T03:59:14.155Z,63.9
2022-08-26T04:00:20.419Z,64.11
2022-08-26T04:01:25.478Z,64.04
2022-08-26T04:02:30.044Z,63.82
2022-08-26T04:03:34.865Z,63.74
2022-08-26T04:04:39.230Z,63.63
2022-08-26T04:05:45.902Z,63.94
2022-08-26T04:06:52.107Z,63.61
2022-08-26T04:07:56.455Z,63.58
2022-08-26T04:09:00.850Z,63.86
2022-08-26T04:10:05.843Z,64.01
2022-08-26T04:11:12.883Z,63.36
2022-08-26T04:12:17.493Z,63.02
2022-08-26T04:13:22.109Z,63.15
2022-08-26T04:14:26.634Z,62.58
2022-08-26T04:15:31.534Z,62.61
2022-08-26T04:16:37.388Z,62.75
2022-08-26T04:17:43.789Z,62.81
2022-08-26T04:18:49.237Z,62.97
2022-08-26T04:19:54.218Z,63
2022-08-26T04:20:59.329Z,63.16
2022-08-26T04:22:03.748Z,63.09
2022-08-26T04:23:09.479Z,63.24
2022-08-26T04:24:14.206Z,63.26
2022-08-26T04:25:18.668Z,63.13
2022-08-26T04:26:25.372Z,63.13
2022-08-26T04:27:30.397Z,63.12
2022-08-26T04:28:34.936Z,63.17
2022-08-26T04:29:41.518Z,63.11
2022-08-26T04:30:45.944Z,63.1
2022-08-26T04:31:50.427Z,63.13
2022-08-26T04:32:59.838Z,63.19
2022-08-26T04:34:04.756Z,63.27
2022-08-26T04:35:11.443Z,63.36
2022-08-26T04:36:16.301Z,63.42
2022-08-26T04:37:22.417Z,63.45
2022-08-26T04:38:27.898Z,63.44
2022-08-26T04:39:32.814Z,63.52
2022-08-26T04:40:39.946Z,63.58
2022-08-26T04:41:54.780Z,63.55
2022-08-26T04:42:59.752Z,63.5
2022-08-26T04:44:05.012Z,63.52
2022-08-26T04:45:12.688Z,63.55
2022-08-26T04:46:18.254Z,63.64
2022-08-26T04:47:23.419Z,63.61
2022-08-26T04:48:27.844Z,63.7
2022-08-26T04:49:37.640Z,63.69
2022-08-26T04:50:49.347Z,63.71
2022-08-26T04:51:54.060Z,63.65
2022-08-26T04:52:59.325Z,63.7
2022-08-26T04:54:05.361Z,63.64
2022-08-26T04:55:10.889Z,63.78
2022-08-26T04:56:15.303Z,63.75
2022-08-26T04:57:19.679Z,63.74
2022-08-26T04:58:24.613Z,63.72
2022-08-26T04:59:30.722Z,63.67
2022-08-26T05:00:36.084Z,63.73
2022-08-26T05:01:41.864Z,63.84
2022-08-26T05:02:46.694Z,63.81
2022-08-26T05:03:56.272Z,63.89
2022-08-26T05:05:01.352Z,63.87
2022-08-26T05:06:05.715Z,63.81
2022-08-26T05:07:11.681Z,63.83
2022-08-26T05:08:16.510Z,63.83
2022-08-26T05:09:21.071Z,63.82
2022-08-26T05:10:25.467Z,63.72
2022-08-26T05:11:31.042Z,63.71
2022-08-26T05:12:36.237Z,63.82
2022-08-26T05:13:42.185Z,63.78
2022-08-26T05:14:48.977Z,63.72
2022-08-26T05:15:55.727Z,63.82
2022-08-26T05:17:05.735Z,63.92
2022-08-26T05:18:12.803Z,63.89
2022-08-26T05:19:22.202Z,63.88
2022-08-26T05:20:28.273Z,63.58
2022-08-26T05:21:32.667Z,63.74
2022-08-26T05:22:37.057Z,63.76
2022-08-26T05:23:42.141Z,63.75
2022-08-26T05:24:46.511Z,63.83
2022-08-26T05:25:52.824Z,63.86
2022-08-26T05:27:00.953Z,63.92
2022-08-26T05:28:06.696Z,63.8
2022-08-26T05:29:11.184Z,63.92
2022-08-26T05:30:15.564Z,63.74
2022-08-26T05:31:20.629Z,63.8
2022-08-26T05:32:25.125Z,63.81
2022-08-26T05:33:29.591Z,63.75
2022-08-26T05:34:34.003Z,63.86
2022-08-26T05:35:38.374Z,63.75
2022-08-26T05:36:42.790Z,63.86
2022-08-26T05:37:48.142Z,63.86
2022-08-26T05:38:52.943Z,63.8
2022-08-26T05:39:57.450Z,63.83
2022-08-26T05:41:04.534Z,63.77
2022-08-26T05:42:10.402Z,63.83
2022-08-26T05:43:14.798Z,63.84
2022-08-26T05:44:19.197Z,63.86
2022-08-26T05:45:24.865Z,64.1
2022-08-26T05:46:29.435Z,64.06
2022-08-26T05:47:34.492Z,63.91
2022-08-26T05:48:39.388Z,63.99
2022-08-26T05:49:54.001Z,64.03
2022-08-26T05:50:58.396Z,64.07
2022-08-26T05:52:02.799Z,63.96
2022-08-26T05:53:07.592Z,63.93
2022-08-26T05:54:12.910Z,63.85
2022-08-26T05:55:19.446Z,63.84
2022-08-26T05:56:23.999Z,63.78
2022-08-26T05:57:29.369Z,63.88
2022-08-26T05:58:34.112Z,63.96
2022-08-26T05:59:42.990Z,63.91
2022-08-26T06:00:47.413Z,63.98
2022-08-26T06:01:52.151Z,63.91
2022-08-26T06:02:56.960Z,64.02
2022-08-26T06:04:03.807Z,63.84
2022-08-26T06:05:09.810Z,63.73
2022-08-26T06:06:14.235Z,63.57
2022-08-26T06:07:22.405Z,63.46
2022-08-26T06:08:27.573Z,63.48
2022-08-26T06:09:33.567Z,63.34
2022-08-26T06:10:43.936Z,63.31
2022-08-26T06:11:50.129Z,63.61
2022-08-26T06:12:54.566Z,63.53
2022-08-26T06:14:05.412Z,63.61
2022-08-26T06:15:09.870Z,63.47
2022-08-26T06:16:14.838Z,63.31
2022-08-26T06:17:19.800Z,63.5
2022-08-26T06:18:24.341Z,63.52
2022-08-26T06:19:36.356Z,63.5
2022-08-26T06:20:59.514Z,63.75
2022-08-26T06:22:03.912Z,63.79
2022-08-26T06:23:08.949Z,63.77
2022-08-26T06:24:14.795Z,64.2
2022-08-26T06:25:20.317Z,64.22
2022-08-26T06:26:25.803Z,64.21
2022-08-26T06:27:34.804Z,64.16
2022-08-26T06:28:39.717Z,64.03
2022-08-26T06:29:48.707Z,64.17
2022-08-26T06:30:53.192Z,64.01
2022-08-26T06:31:58.627Z,64.11
2022-08-26T06:33:05.882Z,63.95
2022-08-26T06:34:12.994Z,63.89
2022-08-26T06:35:17.593Z,63.85
2022-08-26T06:36:24.579Z,63.94
2022-08-26T06:37:30.153Z,64
2022-08-26T06:38:34.645Z,63.9
2022-08-26T06:39:43.253Z,63.94
2022-08-26T06:40:49.630Z,64.03
2022-08-26T06:41:56.167Z,63.92
2022-08-26T06:43:00.511Z,63.8
2022-08-26T06:44:04.853Z,63.82
2022-08-26T06:45:09.569Z,63.79
2022-08-26T06:46:15.635Z,63.72
2022-08-26T06:47:20.351Z,63.74
2022-08-26T06:48:27.697Z,63.66
2022-08-26T06:49:32.246Z,63.73
2022-08-26T06:50:37.347Z,63.57
2022-08-26T06:51:41.705Z,63.53
2022-08-26T06:52:47.346Z,63.73
2022-08-26T06:53:53.511Z,63.57
2022-08-26T06:54:58.000Z,63.51
2022-08-26T06:56:02.490Z,63.58
2022-08-26T06:57:09.067Z,63.43
2022-08-26T06:58:15.163Z,63.59
2022-08-26T06:59:20.824Z,63.59
2022-08-26T07:00:25.441Z,63.53
2022-08-26T07:01:30.610Z,63.33
2022-08-26T07:02:37.266Z,63.32
2022-08-26T07:03:42.577Z,63.4
2022-08-26T07:04:57.760Z,63.32
2022-08-26T07:06:02.383Z,63.48
2022-08-26T07:07:11.717Z,63.42
2022-08-26T07:08:16.233Z,63.59
2022-08-26T07:09:21.820Z,63.45
2022-08-26T07:10:26.516Z,63.22
2022-08-26T07:11:32.099Z,63.4
2022-08-26T07:12:37.354Z,63.39
2022-08-26T07:13:43.924Z,63.16
2022-08-26T07:14:50.143Z,63.09
2022-08-26T07:16:04.239Z,63.13
2022-08-26T07:17:15.739Z,63.18
2022-08-26T07:18:25.804Z,63.19
2022-08-26T07:19:33.025Z,63.06
2022-08-26T07:20:37.413Z,63.08
2022-08-26T07:21:41.803Z,63.02
2022-08-26T07:22:46.145Z,62.97
2022-08-26T07:23:51.038Z,63.23
2022-08-26T07:24:56.836Z,63.37
2022-08-26T07:26:01.423Z,63.22
2022-08-26T07:27:07.991Z,63.04
2022-08-26T07:28:13.095Z,63.16
2022-08-26T07:29:19.160Z,63.07
2022-08-26T07:30:23.919Z,63.07
2022-08-26T07:31:28.671Z,62.94
2022-08-26T07:32:34.466Z,63.07
2022-08-26T07:33:40.193Z,63.12
2022-08-26T07:34:45.587Z,63.09
2022-08-26T07:35:50.401Z,63.04
2022-08-26T07:36:56.363Z,63.06
2022-08-26T07:38:00.691Z,63
2022-08-26T07:39:06.620Z,62.99
2022-08-26T07:40:11.559Z,63.13
2022-08-26T07:41:16.109Z,63.08
2022-08-26T07:42:21.536Z,63.21
2022-08-26T07:43:25.927Z,63.1
2022-08-26T07:44:34.089Z,62.88
2022-08-26T07:45:38.504Z,62.98
2022-08-26T07:46:53.567Z,62.78
2022-08-26T07:47:58.988Z,62.74
2022-08-26T07:49:03.842Z,62.69
2022-08-26T07:50:09.107Z,62.49
2022-08-26T07:51:13.916Z,62.43
2022-08-26T07:52:26.536Z,62.45
2022-08-26T07:53:31.446Z,62.48
2022-08-26T07:54:36.992Z,62.64
2022-08-26T07:55:41.371Z,62.8
2022-08-26T07:56:46.376Z,62.78
2022-08-26T07:57:50.911Z,62.62
2022-08-26T07:58:55.262Z,62.69
2022-08-26T07:59:59.838Z,62.38
2022-08-26T08:01:08.396Z,62.17
2022-08-26T08:02:13.281Z,62.53
2022-08-26T08:03:19.086Z,62.39
2022-08-26T08:04:28.319Z,62.37
2022-08-26T08:05:35.878Z,62.44
2022-08-26T08:06:40.961Z,62.32
2022-08-26T08:07:54.462Z,62.23
2022-08-26T08:09:31.731Z,62.33
2022-08-26T08:10:36.058Z,62.49
2022-08-26T08:11:40.697Z,62.17
2022-08-26T08:12:45.099Z,62.5
2022-08-26T08:13:49.931Z,62.35
2022-08-26T08:15:01.583Z,62.69
2022-08-26T08:16:05.962Z,62.45
2022-08-26T08:18:18.031Z,61.05
2022-08-26T08:19:39.942Z,61.89
2022-08-26T08:21:19.872Z,62.21
2022-08-26T08:22:28.267Z,62.14
2022-08-26T08:23:32.673Z,62.17
2022-08-26T08:24:37.063Z,61.86
2022-08-26T08:25:41.435Z,60.93
2022-08-26T08:26:45.781Z,61.06
2022-08-26T08:27:51.618Z,61.59
2022-08-26T08:28:56.609Z,61.44
2022-08-26T08:30:00.972Z,61.45
2022-08-26T08:31:07.003Z,61.3
2022-08-26T08:32:16.455Z,60.66
2022-08-26T08:33:20.819Z,61.24
2022-08-26T08:34:26.911Z,61.13
2022-08-26T08:35:32.473Z,60.68
2022-08-26T08:36:37.998Z,59.17
2022-08-26T08:37:44.269Z,60.12
2022-08-26T08:38:48.781Z,60.02
2022-08-26T08:39:53.441Z,59.74
2022-08-26T08:40:57.773Z,60.77
2022-08-26T08:42:03.522Z,60.36
2022-08-26T08:43:09.254Z,60.72
2022-08-26T08:44:13.813Z,60.51
2022-08-26T08:45:20.429Z,59.98
2022-08-26T08:46:28.983Z,60.2
2022-08-26T08:47:33.603Z,58.11
2022-08-26T08:48:39.614Z,58.46
2022-08-26T08:49:45.158Z,58.29
2022-08-26T08:50:51.379Z,59.82
2022-08-26T08:51:57.660Z,58.81
2022-08-26T08:53:02.297Z,58.43
2022-08-26T08:54:08.047Z,58.3
2022-08-26T08:55:19.175Z,57.88
2022-08-26T08:56:23.687Z,57.73
2022-08-26T08:57:28.620Z,58.3
2022-08-26T08:58:33.609Z,58.16
2022-08-26T08:59:42.329Z,58.19
2022-08-26T09:00:46.686Z,58.25
2022-08-26T09:01:55.841Z,58.37
2022-08-26T09:03:01.581Z,58.11
2022-08-26T09:04:05.904Z,58.29
2022-08-26T09:05:16.373Z,57.92
2022-08-26T09:06:21.021Z,58.43
2022-08-26T09:07:27.080Z,58.5
2022-08-26T09:08:31.436Z,58.57
2022-08-26T09:09:35.800Z,58.15
2022-08-26T09:10:40.172Z,58.08
2022-08-26T09:11:45.272Z,57.96
2022-08-26T09:12:49.646Z,58.22
2022-08-26T09:13:54.011Z,57.8
2022-08-26T09:15:00.161Z,58.4
2022-08-26T09:16:05.126Z,58.61
2022-08-26T09:17:10.362Z,58.8
2022-08-26T09:18:15.328Z,58.08
2022-08-26T09:19:21.171Z,58.44
2022-08-26T09:20:25.589Z,57.99
2022-08-26T09:21:30.910Z,57.98
2022-08-26T09:22:36.402Z,58.29
2022-08-26T09:23:43.847Z,57.69
2022-08-26T09:24:51.106Z,57.95
2022-08-26T09:25:56.497Z,58.31
2022-08-26T09:27:00.894Z,57.72
2022-08-26T09:28:05.742Z,57.72
2022-08-26T09:29:11.818Z,57.43
2022-08-26T09:30:16.363Z,57.02
2022-08-26T09:31:24.686Z,55.9
2022-08-26T09:32:31.729Z,56.21
2022-08-26T09:33:37.012Z,56.02
2022-08-26T09:34:42.535Z,55.79
2022-08-26T09:35:46.855Z,56.17
2022-08-26T09:36:52.959Z,56.69
2022-08-26T09:37:57.289Z,56.29
2022-08-26T09:39:01.626Z,55.99
2022-08-26T09:40:06.340Z,56.14
2022-08-26T09:41:10.943Z,56.16
2022-08-26T09:42:18.902Z,56.9
2022-08-26T09:43:24.885Z,56.53
2022-08-26T09:44:29.290Z,56.6
2022-08-26T09:45:33.708Z,55.35
2022-08-26T09:47:44.186Z,56.38
2022-08-26T09:48:53.155Z,55.86
2022-08-26T09:49:58.161Z,56
2022-08-26T09:51:03.381Z,55.95
2022-08-26T09:52:09.400Z,55.17
2022-08-26T09:53:15.137Z,55.47
2022-08-26T09:54:32.321Z,55.35
2022-08-26T09:55:37.377Z,55.33
2022-08-26T09:56:41.786Z,54.93
2022-08-26T09:57:46.804Z,55.25
2022-08-26T09:58:51.153Z,55.03
2022-08-26T09:59:55.535Z,55.5
2022-08-26T10:01:01.534Z,55.79
2022-08-26T10:02:14.097Z,55.85
2022-08-26T10:03:19.587Z,55.76
2022-08-26T10:04:24.827Z,55.44
2022-08-26T10:05:31.493Z,55.28
2022-08-26T10:06:35.875Z,54.64
2022-08-26T10:07:40.205Z,54.15
2022-08-26T10:08:51.959Z,53.67
2022-08-26T10:09:58.630Z,53.34
2022-08-26T10:11:02.973Z,53.09
2022-08-26T10:12:07.681Z,54.21
2022-08-26T10:13:12.930Z,54.16
2022-08-26T10:14:17.276Z,53.85
2022-08-26T10:15:25.677Z,53.4
2022-08-26T10:16:32.201Z,52.64
2022-08-26T10:17:38.229Z,53.6
2022-08-26T10:18:44.504Z,52.37
2022-08-26T10:19:59.417Z,52.33
2022-08-26T10:21:08.272Z,52.67
2022-08-26T10:22:12.638Z,52.9
2022-08-26T10:23:17.124Z,53.77
2022-08-26T10:24:23.075Z,53.57
2022-08-26T10:25:27.412Z,54.27
2022-08-26T10:26:31.856Z,53.71
2022-08-26T10:27:36.943Z,52.64
2022-08-26T10:28:46.368Z,54
2022-08-26T10:29:55.433Z,53.95
2022-08-26T10:31:00.069Z,54.02
2022-08-26T10:32:06.163Z,53.49
2022-08-26T10:33:11.202Z,51.79
2022-08-26T10:34:17.315Z,52.16
2022-08-26T10:35:23.060Z,51.89
2022-08-26T10:36:27.561Z,51.78
2022-08-26T10:37:34.270Z,51.14
2022-08-26T10:38:39.763Z,50.61
2022-08-26T10:39:44.094Z,51.11
2022-08-26T10:40:51.457Z,52.82
2022-08-26T10:41:57.646Z,52.52
2022-08-26T10:43:02.011Z,49.97
2022-08-26T10:44:14.215Z,50.74
2022-08-26T10:45:18.609Z,51.52
2022-08-26T10:46:29.103Z,52.38
2022-08-26T10:47:33.640Z,51.8
2022-08-26T10:48:38.101Z,50.49
2022-08-26T10:49:43.369Z,50.2
2022-08-26T10:50:49.689Z,52.21
2022-08-26T10:51:55.120Z,52.84
2022-08-26T10:53:01.144Z,53.66
2022-08-26T10:54:06.059Z,53.88
2022-08-26T10:55:10.545Z,53.97
2022-08-26T10:56:20.429Z,54.06
2022-08-26T10:57:24.840Z,54.13
2022-08-26T10:58:31.161Z,54.28
2022-08-26T10:59:39.053Z,54.31
2022-08-26T11:00:46.252Z,54.28
2022-08-26T11:01:54.652Z,54.33
2022-08-26T11:03:00.002Z,54.26
2022-08-26T11:04:05.237Z,54.43
2022-08-26T11:05:10.886Z,54.23
2022-08-26T11:06:15.984Z,54.45
2022-08-26T11:07:24.211Z,54.45
2022-08-26T11:08:28.948Z,54.6
2022-08-26T11:09:34.276Z,54.61
2022-08-26T11:10:38.712Z,54.73
2022-08-26T11:11:43.100Z,54.68
2022-08-26T11:12:51.460Z,54.75
2022-08-26T11:13:57.923Z,54.65
2022-08-26T11:15:02.265Z,54.66
2022-08-26T11:16:09.713Z,54.63
2022-08-26T11:17:14.218Z,54.61
2022-08-26T11:18:20.395Z,54.73
2022-08-26T11:20:04.681Z,54.87
2022-08-26T11:21:13.802Z,54.95
2022-08-26T11:22:19.542Z,54.76
2022-08-26T11:23:24.806Z,54.73
2022-08-26T11:24:32.668Z,54.86
2022-08-26T11:25:40.587Z,54.86
2022-08-26T11:26:58.606Z,55.06
2022-08-26T11:28:03.171Z,55.03
2022-08-26T11:29:15.359Z,55.04
2022-08-26T11:30:21.107Z,55.16
2022-08-26T11:31:29.234Z,55.26
2022-08-26T11:32:36.764Z,55.33
2022-08-26T11:33:41.139Z,55.33
2022-08-26T11:34:45.502Z,55.3
2022-08-26T11:35:50.987Z,55.31
2022-08-26T11:36:56.824Z,55.42
2022-08-26T11:38:05.318Z,55.41
2022-08-26T11:39:11.296Z,55.42
2022-08-26T11:40:15.971Z,55.33
2022-08-26T11:41:21.057Z,55.43
2022-08-26T11:42:28.721Z,55.42
2022-08-26T11:43:33.191Z,55.44
2022-08-26T11:44:39.314Z,55.4
2022-08-26T11:45:45.073Z,55.47
2022-08-26T11:46:50.723Z,55.51
2022-08-26T11:47:57.413Z,55.53
2022-08-26T11:49:01.795Z,55.5
2022-08-26T11:50:06.688Z,55.52
2022-08-26T11:51:11.037Z,55.49
2022-08-26T11:52:15.393Z,55.52
2022-08-26T11:53:23.857Z,55.1
2022-08-26T11:54:37.605Z,55.05
2022-08-26T11:55:42.037Z,55.12
2022-08-26T11:56:46.415Z,55.07
2022-08-26T11:57:52.865Z,55.48
2022-08-26T11:58:57.788Z,55.67
2022-08-26T12:00:02.585Z,55.44
2022-08-26T12:01:12.551Z,55.43
2022-08-26T12:02:18.716Z,55.67
2022-08-26T12:03:25.341Z,55.78
2022-08-26T12:04:30.292Z,55.79
2022-08-26T12:05:35.699Z,55.75
2022-08-26T12:06:47.678Z,55.84
2022-08-26T12:07:55.011Z,55.84
2022-08-26T12:09:00.699Z,55.79
2022-08-26T12:10:06.738Z,55.86
2022-08-26T12:11:11.691Z,55.82
2022-08-26T12:12:16.074Z,55.79
2022-08-26T12:13:20.471Z,55.8
2022-08-26T12:14:27.298Z,55.82
2022-08-26T12:15:32.313Z,55.86
2022-08-26T12:16:36.979Z,55.88
2022-08-26T12:17:42.801Z,55.87
2022-08-26T12:18:48.068Z,55.88
2022-08-26T12:19:52.575Z,55.96
2022-08-26T12:20:56.940Z,55.98
2022-08-26T12:22:01.561Z,55.99
2022-08-26T12:23:07.782Z,55.95
2022-08-26T12:24:14.737Z,55.93
2022-08-26T12:25:19.682Z,55.97
2022-08-26T12:26:24.356Z,55.93
2022-08-26T12:27:30.169Z,55.92
2022-08-26T12:28:34.527Z,55.95
2022-08-26T12:29:42.774Z,56
2022-08-26T12:30:52.884Z,56.06
2022-08-26T12:31:57.733Z,56.04
2022-08-26T12:33:02.085Z,56.09
2022-08-26T12:34:19.764Z,56.05
2022-08-26T12:35:25.796Z,56.08
2022-08-26T12:36:30.800Z,56
2022-08-26T12:37:36.639Z,55.74
2022-08-26T12:38:41.167Z,54.26
2022-08-26T12:39:45.527Z,54.18
2022-08-26T12:40:49.883Z,53.72
2022-08-26T12:41:54.292Z,53.59
2022-08-26T12:42:58.677Z,53.42
2022-08-26T12:44:03.091Z,53.08
2022-08-26T12:45:07.493Z,52.67
2022-08-26T12:46:11.850Z,52.65
2022-08-26T12:47:44.081Z,52.41
2022-08-26T12:48:48.651Z,52.47
2022-08-26T12:49:53.021Z,52.13
2022-08-26T12:50:57.405Z,52.13
2022-08-26T12:52:01.859Z,52.3
2022-08-26T12:53:06.209Z,52.6
2022-08-26T12:54:10.547Z,53
2022-08-26T12:55:18.197Z,52.68
2022-08-26T12:56:22.546Z,51.89
2022-08-26T12:57:26.903Z,51.68
2022-08-26T12:58:31.275Z,52.58
2022-08-26T12:59:35.646Z,52.18
2022-08-26T13:00:40.269Z,51.43
2022-08-26T13:01:45.293Z,51.92
2022-08-26T13:02:49.761Z,51.37
2022-08-26T13:03:54.568Z,51.24
2022-08-26T13:05:02.718Z,51.09
2022-08-26T13:06:07.090Z,50.59
2022-08-26T13:07:11.449Z,50.35
2022-08-26T13:08:15.792Z,50.48
2022-08-26T13:09:20.188Z,50.73
2022-08-26T13:10:31.027Z,50.19
2022-08-26T13:11:35.483Z,50.15
2022-08-26T13:12:39.825Z,49.96
2022-08-26T13:13:44.658Z,50.54
2022-08-26T13:14:49.961Z,50.27
2022-08-26T13:15:54.542Z,50.65
2022-08-26T13:16:58.910Z,49.93
2022-08-26T13:18:03.266Z,50.37
2022-08-26T13:19:12.241Z,49.99
2022-08-26T13:20:16.617Z,49.43
2022-08-26T13:21:20.957Z,49.71
2022-08-26T13:22:25.374Z,49.51
2022-08-26T13:23:29.807Z,49.35
2022-08-26T13:24:34.199Z,48.75
2022-08-26T13:25:38.574Z,48.98
2022-08-26T13:26:42.948Z,49.09
2022-08-26T13:27:47.325Z,49.34
2022-08-26T13:29:10.106Z,49.93
2022-08-26T13:30:14.995Z,49
2022-08-26T13:31:20.760Z,49.65
2022-08-26T13:32:31.334Z,49.87
2022-08-26T13:33:36.527Z,48.89
2022-08-26T13:34:41.113Z,49.37
2022-08-26T13:35:45.497Z,49.06
2022-08-26T13:36:49.931Z,49.46
2022-08-26T13:37:54.275Z,48.22
2022-08-26T13:38:58.640Z,48.42
2022-08-26T13:40:03.269Z,49.42
2022-08-26T13:41:07.668Z,49.7
2022-08-26T13:42:12.047Z,49.64
2022-08-26T13:43:16.393Z,49.81
2022-08-26T13:44:20.760Z,50.22
2022-08-26T13:45:25.114Z,50.15
2022-08-26T13:46:30.047Z,50.17
2022-08-26T13:47:34.435Z,49.73
2022-08-26T13:48:45.853Z,49.43
2022-08-26T13:49:50.228Z,49.3
2022-08-26T13:50:54.657Z,49.1
2022-08-26T13:51:59.066Z,49.07
2022-08-26T13:53:06.759Z,49.49
2022-08-26T13:54:11.212Z,49.61
2022-08-26T13:55:15.574Z,49.68
2022-08-26T13:56:19.940Z,47.93
2022-08-26T13:57:24.331Z,47.33
2022-08-26T13:58:28.719Z,47.24
2022-08-26T13:59:33.105Z,46.73
2022-08-26T14:00:37.627Z,46.39
2022-08-26T14:01:42.035Z,46.25
2022-08-26T14:02:46.405Z,46.17
2022-08-26T14:03:51.082Z,45.7
2022-08-26T14:04:55.526Z,45.51
2022-08-26T14:05:59.907Z,45.48
2022-08-26T14:07:04.377Z,45.19
2022-08-26T14:08:09.397Z,45.04
2022-08-26T14:09:13.885Z,45.37
2022-08-26T14:10:18.278Z,44.92
2022-08-26T14:11:22.645Z,45.54
2022-08-26T14:12:26.970Z,45.19
2022-08-26T14:13:31.349Z,44.99
2022-08-26T14:14:35.749Z,45.1
2022-08-26T14:15:40.114Z,44.77
2022-08-26T14:17:01.860Z,45.23
2022-08-26T14:18:09.731Z,44.62
2022-08-26T14:19:14.080Z,44.91